Stations météo

Publicité
Bourg-St-Maurice, France (7497): Température de l'air & dewpoint: 04.12.2018 16:00:00 - 10.12.2018 16:00:00 (CET)Bourg-St-Maurice, France (7497): Température de l'air 5cm: 04.12.2018 16:00:00 - 10.12.2018 16:00:00 (CET)Bourg-St-Maurice, France (7497): Température de l'air -20cm & Température de l'air -100cm: 04.12.2018 16:00:00 - 10.12.2018 16:00:00 (CET)Bourg-St-Maurice, France (7497): Vitesse du vent & gusts: 04.12.2018 16:00:00 - 10.12.2018 16:00:00 (CET)Bourg-St-Maurice, France (7497): Direction du vent: 04.12.2018 16:00:00 - 10.12.2018 16:00:00 (CET)Bourg-St-Maurice, France (7497): Ensoleillement: 04.12.2018 16:00:00 - 10.12.2018 16:00:00 (CET)Bourg-St-Maurice, France (7497): Quantités de précipitations: 04.12.2018 16:00:00 - 10.12.2018 16:00:00 (CET)
Date & Time tt [°C] td [°C] tt 5cm [°C] tt -20cm [°C] tt -100cm [°C] ff [km/h] ff [knt] fx [km/h] fx [knt] dd sd [min] rr [mm]
10.12.2018 16:00:00 - - - - - - - - - - - -
10.12.2018 15:00:00 2,3 0,8 1,5 4,4 8,6 6 4 21 12 WSW 0 1,0
10.12.2018 14:00:00 2,7 1,2 2,0 4,4 8,6 3 1 10 6 WNW 0 0,4
10.12.2018 13:00:00 2,5 1,3 1,5 4,4 8,6 4 2 16 9 NNW 0 0,2
10.12.2018 12:00:00 2,4 1,1 1,6 4,4 8,6 7 4 15 8 WNW 0 0,2
10.12.2018 11:00:00 2,6 1,6 1,4 4,4 8,7 8 4 19 11 WSW 0 0,2
10.12.2018 10:00:00 1,9 0,9 0,8 4,4 8,7 3 2 16 9 W 0 0,6
10.12.2018 09:00:00 1,7 0,5 0,8 4,4 8,7 5 3 21 12 W 0 1,2
10.12.2018 08:00:00 2,5 1,0 1,1 4,5 8,7 9 5 24 13 SW 0 0,6
10.12.2018 07:00:00 2,6 1,4 1,6 4,5 8,7 8 4 31 17 SW 0 0,4
10.12.2018 06:00:00 2,7 1,5 1,8 4,5 8,7 8 4 20 11 SW 0 0,2
10.12.2018 05:00:00 2,9 1,7 2,0 4,4 8,7 15 8 32 17 SSW 0 0,6
10.12.2018 04:00:00 3,0 1,8 2,0 4,5 8,7 5 3 26 14 WNW 0 0,6
10.12.2018 03:00:00 2,8 1,9 2,0 4,5 8,8 3 2 29 16 S 0 0,4
10.12.2018 02:00:00 3,4 1,9 2,3 4,5 8,8 12 7 29 16 SW 0 0,0
10.12.2018 01:00:00 3,2 2,0 2,2 4,5 8,8 13 7 29 16 SSW 0 0,2
10.12.2018 00:00:00 3,1 2,1 2,1 4,4 8,8 8 5 32 18 SW 0 0,2
09.12.2018 23:00:00 2,9 2,2 2,0 4,5 8,8 11 6 38 20 SW 0 0,2
09.12.2018 22:00:00 2,7 2,0 1,8 4,5 8,8 16 9 31 17 WSW 0 0,6
09.12.2018 21:00:00 2,5 1,8 1,8 4,5 8,9 11 6 31 17 SW 0 2,2
09.12.2018 20:00:00 2,6 1,9 1,8 4,6 8,9 11 6 30 16 SW 0 2,5
09.12.2018 19:00:00 2,6 1,7 1,8 4,6 8,9 16 9 40 21 SW 0 1,4
09.12.2018 18:00:00 2,6 1,7 1,7 4,6 8,9 17 9 36 19 SW 0 1,2
09.12.2018 17:00:00 2,7 1,4 1,8 4,5 8,9 16 8 44 24 SSW 0 1,2
09.12.2018 16:00:00 2,8 1,2 1,8 4,5 9,0 16 9 34 19 SW 0 0,4
09.12.2018 15:00:00 3,5 1,4 2,3 4,5 9,0 14 8 46 25 SW 0 0,2
09.12.2018 14:00:00 3,7 2,1 2,7 4,4 9,0 21 12 45 24 SSW 0 1,0
09.12.2018 13:00:00 3,7 2,4 2,8 4,4 9,0 5 3 38 21 S 0 1,8
09.12.2018 12:00:00 4,5 2,5 3,4 4,3 9,0 13 7 48 26 SW 0 1,8
09.12.2018 11:00:00 4,4 3,1 3,4 4,3 9,0 16 9 44 24 SW 0 3,0
09.12.2018 10:00:00 4,5 2,8 3,3 4,3 9,0 14 8 38 21 SW 0 1,2
09.12.2018 09:00:00 5,1 2,4 3,3 4,4 9,1 16 9 44 24 SW 0 0,8
09.12.2018 08:00:00 5,0 2,9 2,9 4,4 9,1 15 8 59 32 SW 0 0,6
09.12.2018 07:00:00 4,8 3,0 0,1 4,6 9,1 19 11 44 24 SW 0 1,6
09.12.2018 06:00:00 1,5 1,2 -0,3 4,7 9,1 13 7 26 14 SW 0 0,8
09.12.2018 05:00:00 0,4 0,0 -0,3 4,7 9,1 0 0 5 3 N 0 0,6
09.12.2018 04:00:00 0,5 0,1 -0,3 4,8 9,1 0 0 6 3 N 0 0,6
09.12.2018 03:00:00 0,4 0,0 -0,3 4,8 9,1 0 0 5 3 N 0 0,2
09.12.2018 02:00:00 0,4 0,0 -0,3 4,9 9,1 0 0 4 2 N 0 0,4
09.12.2018 01:00:00 0,3 -0,1 -0,3 4,9 9,1 4 2 9 5 W 0 1,0
09.12.2018 00:00:00 0,4 0,0 -0,4 5,0 9,1 4 2 9 5 S 0 1,2
08.12.2018 23:00:00 0,3 -0,1 -0,4 5,1 9,1 2 1 6 4 W 0 1,4
08.12.2018 22:00:00 0,4 -0,2 -0,4 5,2 9,1 2 1 9 5 SSW 0 0,9
08.12.2018 21:00:00 0,5 -0,1 -0,4 5,2 9,1 3 1 5 3 N 0 1,0
08.12.2018 20:00:00 0,6 -0,1 -0,3 5,3 9,2 2 1 5 3 N 0 2,0
08.12.2018 19:00:00 1,0 0,3 0,0 5,4 9,1 0 0 8 4 N 0 0,6
08.12.2018 18:00:00 1,2 0,5 0,4 5,4 9,1 2 1 4 2 N 0 0,4
08.12.2018 17:00:00 1,5 0,6 0,5 5,4 9,1 0 0 4 2 N 0 0,6
08.12.2018 16:00:00 1,7 0,8 1,0 5,4 9,1 0 0 8 4 N 0 0,4
08.12.2018 15:00:00 1,9 0,9 1,4 5,4 9,1 3 1 11 6 SSW 0 0,4
08.12.2018 14:00:00 2,0 1,0 1,4 5,5 9,2 5 3 10 6 SSW 0 0,4
08.12.2018 13:00:00 1,9 0,7 1,5 5,5 9,2 5 3 10 6 SW 0 0,4
08.12.2018 12:00:00 1,8 0,6 1,1 5,5 9,2 6 3 20 11 WSW 0 0,0
08.12.2018 11:00:00 1,5 0,3 1,0 5,5 9,2 8 4 29 16 S 0 0,2
08.12.2018 10:00:00 1,6 0,3 0,9 5,6 9,2 7 4 21 12 SW 0 0,0
08.12.2018 09:00:00 1,5 -0,1 0,8 5,6 9,2 6 4 23 13 WSW 0 0,0
08.12.2018 08:00:00 1,4 -0,2 0,6 5,7 9,2 10 6 23 13 SW 0 0,0
08.12.2018 07:00:00 1,2 -0,4 0,1 5,8 9,2 11 6 24 13 SW 0 -
08.12.2018 06:00:00 1,5 -0,4 0,4 5,9 9,2 6 3 23 12 SW 0 0,0
08.12.2018 05:00:00 1,8 0,0 0,7 5,9 9,2 9 5 25 13 S 0 0,2
08.12.2018 04:00:00 2,1 0,0 1,0 5,9 9,2 8 5 25 13 SW 0 0,0
08.12.2018 03:00:00 2,5 0,4 1,3 6,0 9,2 6 4 28 15 SW 0 0,0
08.12.2018 02:00:00 3,1 0,8 1,3 6,1 9,2 8 4 37 20 W 0 0,0
08.12.2018 01:00:00 3,7 2,1 2,4 6,1 9,2 14 7 30 16 SSW 0 0,2
08.12.2018 00:00:00 4,3 2,5 3,0 6,1 9,2 8 4 40 22 WSW 0 1,0
07.12.2018 23:00:00 5,0 4,4 4,2 6,1 9,2 8 4 16 9 NNE 0 2,0
07.12.2018 22:00:00 4,8 4,1 4,0 6,1 9,2 2 1 9 5 W 0 1,0
07.12.2018 21:00:00 4,9 3,9 3,9 6,1 9,2 0 0 12 7 N 0 1,6
07.12.2018 20:00:00 5,1 3,4 3,9 6,1 9,2 3 2 8 4 ENE 0 0,0
07.12.2018 19:00:00 4,8 3,1 4,0 6,1 9,2 4 2 8 4 NNE 0 0,0
07.12.2018 18:00:00 5,1 2,9 2,5 6,1 9,2 2 1 14 8 ENE 0 0,0
07.12.2018 17:00:00 4,9 2,9 2,7 6,0 9,2 5 3 8 4 NW 0 0,0
07.12.2018 16:00:00 7,1 3,5 5,2 5,8 9,3 3 2 14 8 W 48 0,0
07.12.2018 15:00:00 9,1 3,7 12,2 5,6 9,3 5 3 10 5 N 60 0,0
07.12.2018 14:00:00 11,8 5,2 12,7 5,4 9,3 3 2 8 5 SE 60 0,0
07.12.2018 13:00:00 10,9 3,7 12,1 5,2 9,3 8 4 16 9 SSW 60 0,0
07.12.2018 12:00:00 9,1 4,7 6,5 5,1 9,2 5 3 12 7 S 54 0,0
07.12.2018 11:00:00 4,2 3,9 3,2 5,1 9,3 4 2 11 6 N 16 0,0
07.12.2018 10:00:00 2,7 2,4 0,9 5,1 9,2 7 4 12 6 SSW 11 0,0
07.12.2018 09:00:00 1,4 1,0 -0,4 5,2 9,3 3 1 5 3 NNW 5 0,0
07.12.2018 08:00:00 0,9 0,5 -1,2 5,3 9,3 5 3 6 3 N 0 0,0
07.12.2018 07:00:00 0,7 0,1 -1,8 5,4 9,3 4 2 5 3 NNE 0 0,0
07.12.2018 06:00:00 1,2 0,8 -1,2 5,5 9,3 3 2 8 4 N 0 0,0
07.12.2018 05:00:00 1,2 0,8 -0,9 5,6 9,3 6 4 11 6 N 0 0,0
07.12.2018 04:00:00 1,6 1,2 -0,9 5,7 9,3 2 1 7 4 NNW 0 0,0
07.12.2018 03:00:00 1,6 1,0 -0,4 5,7 9,3 3 2 5 3 N 0 0,0
07.12.2018 02:00:00 2,5 2,1 -0,5 5,8 9,3 4 2 11 6 NNE 0 0,0
07.12.2018 01:00:00 1,8 1,2 -0,5 5,9 9,3 0 0 9 5 N 0 0,0
07.12.2018 00:00:00 2,1 1,7 0,4 6,0 9,4 0 0 5 3 N 0 0,0
06.12.2018 23:00:00 2,4 2,0 -0,3 6,1 9,3 4 2 5 3 N 0 0,0
06.12.2018 22:00:00 2,1 1,5 -0,4 6,1 9,3 0 0 6 4 N 0 0,0
06.12.2018 21:00:00 2,0 1,4 -0,1 6,2 9,3 3 1 7 4 N 0 0,0
06.12.2018 20:00:00 2,6 1,9 0,3 6,3 9,3 2 1 8 5 WNW 0 0,0
06.12.2018 19:00:00 3,1 2,1 0,5 6,3 9,3 3 1 13 7 N 0 0,0
06.12.2018 18:00:00 4,4 3,5 2,9 6,3 9,3 6 3 11 6 N 0 0,0
06.12.2018 17:00:00 5,0 3,8 3,5 6,3 9,4 5 3 11 6 NNW 0 0,0
06.12.2018 16:00:00 5,8 4,0 4,4 6,2 9,3 3 2 6 3 W 21 0,0
06.12.2018 15:00:00 7,0 4,1 6,9 6,1 9,3 5 3 8 4 NNE 19 0,0
06.12.2018 14:00:00 6,0 3,7 5,3 6,0 9,3 0 0 7 4 N 0 0,0
06.12.2018 13:00:00 5,2 3,7 4,5 6,0 9,3 0 0 8 5 N 0 0,0
06.12.2018 12:00:00 4,7 3,7 4,2 6,0 9,4 3 2 8 5 N 0 0,2
06.12.2018 11:00:00 4,5 3,5 3,8 6,0 9,4 0 0 8 4 N 0 0,6
06.12.2018 10:00:00 4,4 3,5 3,7 6,0 9,4 3 2 9 5 NW 0 3,9
06.12.2018 09:00:00 4,5 3,9 3,9 6,0 9,3 0 0 3 2 N 0 2,2
06.12.2018 08:00:00 4,5 3,9 3,7 6,1 9,3 2 1 7 4 NW 0 0,8
06.12.2018 07:00:00 4,5 3,8 3,6 6,1 9,3 3 2 6 3 N 0 0,4
06.12.2018 06:00:00 4,3 3,4 3,5 6,1 9,4 0 0 11 6 N 0 0,2
06.12.2018 05:00:00 4,4 3,4 3,3 6,1 9,3 6 3 11 6 NW 0 0,2
06.12.2018 04:00:00 4,3 2,8 3,3 6,2 9,3 5 3 13 7 SSW 0 0,2
06.12.2018 03:00:00 3,9 2,4 2,9 6,2 9,3 4 2 13 7 N 0 0,0
06.12.2018 02:00:00 3,7 2,4 1,8 6,4 9,4 5 3 10 5 N 0 0,0
06.12.2018 01:00:00 4,1 2,3 2,6 6,4 9,3 4 2 11 6 SW 0 0,0
06.12.2018 00:00:00 4,9 3,1 1,3 6,4 9,3 6 3 10 5 NNW 0 0,0
05.12.2018 23:00:00 4,8 2,7 1,9 6,5 9,3 0 0 7 4 N 0 0,0
05.12.2018 22:00:00 6,4 3,2 3,9 6,5 9,4 3 2 12 7 WNW 0 0,0
05.12.2018 21:00:00 5,3 2,8 4,0 6,5 9,3 4 2 8 4 N 0 0,0
05.12.2018 20:00:00 5,8 2,8 3,4 6,6 9,4 5 3 9 5 N 0 0,0
05.12.2018 19:00:00 5,1 2,6 2,9 6,6 9,3 0 0 5 3 N 0 0,0
05.12.2018 18:00:00 5,7 2,3 3,4 6,6 9,3 4 2 10 5 N 0 0,0
05.12.2018 17:00:00 6,6 2,7 3,7 6,5 9,4 0 0 6 3 N 7 0,0
05.12.2018 16:00:00 8,0 2,7 6,6 6,4 9,3 2 1 7 4 N 27 0,0
05.12.2018 15:00:00 9,8 3,3 12,2 6,2 9,3 3 2 6 4 NNE 60 0,0
05.12.2018 14:00:00 9,3 1,0 12,2 6,0 9,3 4 2 6 3 NNE 60 0,0
05.12.2018 13:00:00 9,6 0,5 11,5 5,9 9,3 3 2 7 4 E 60 0,0
05.12.2018 12:00:00 8,3 2,7 7,6 5,9 9,3 2 1 6 3 E 60 0,0
05.12.2018 11:00:00 6,2 2,3 0,0 6,0 9,3 3 1 8 4 S 57 0,0
05.12.2018 10:00:00 0,5 -0,4 -1,7 6,1 9,3 4 2 6 4 N 0 0,0
05.12.2018 09:00:00 -0,1 -1,0 -2,6 6,2 9,3 3 2 7 4 N 0 0,0
05.12.2018 08:00:00 -0,2 -1,2 -2,8 6,4 9,3 0 0 7 4 N 0 0,0
05.12.2018 07:00:00 -0,2 -0,9 -2,5 6,5 9,3 5 3 6 4 N 0 0,0
05.12.2018 06:00:00 0,3 -0,6 -2,1 6,6 9,3 3 2 9 5 SW 0 0,0
05.12.2018 05:00:00 0,4 -0,3 -2,1 6,8 9,3 6 3 8 4 N 0 0,0
05.12.2018 04:00:00 0,7 -0,2 -1,4 6,9 9,2 0 0 11 6 N 0 0,0
05.12.2018 03:00:00 0,6 -0,1 -2,1 7,1 9,2 3 2 6 3 N 0 0,0
05.12.2018 02:00:00 1,2 0,6 -1,4 7,2 9,2 4 2 7 4 NNW 0 0,0
05.12.2018 01:00:00 1,3 0,6 -1,4 7,4 9,2 2 1 6 3 NNW 0 0,0
05.12.2018 00:00:00 1,6 0,9 -1,2 7,5 9,2 4 2 6 4 N 0 0,0
04.12.2018 23:00:00 2,2 1,3 -0,5 7,6 9,2 3 1 6 3 N 0 0,0
04.12.2018 22:00:00 2,6 1,7 0,1 7,7 9,2 0 0 4 2 N 0 0,0
04.12.2018 21:00:00 3,1 2,1 1,0 7,8 9,2 3 1 5 3 N 0 0,0
04.12.2018 20:00:00 3,9 2,7 1,3 7,9 9,2 0 0 7 4 N 0 0,0
04.12.2018 19:00:00 4,9 3,6 2,6 7,9 9,2 2 1 6 3 NNE 0 0,0
04.12.2018 18:00:00 5,9 3,6 3,9 7,9 9,2 0 0 9 5 N 0 0,0
04.12.2018 17:00:00 7,4 4,4 5,7 7,8 9,2 4 2 16 9 SW 18 0,0
04.12.2018 16:00:00 9,4 3,4 8,9 7,6 9,2 9 5 21 12 WSW 60 0,0

tt = Température de l'air
td = dewpoint
tt 5cm = Température de l'air 5cm
tt -20cm = Température de l'air -20cm
tt -100cm = Température de l'air -100cm
ff = Vitesse du vent
fx = gusts
dd = Direction du vent
sd = Ensoleillement
rr = Quantités de précipitations

stations d'obs. à proximité